Weather observations for the past three days for
Kuparuk, Ugnu-Kuparuk Airport
| Date | Time (akdt) | Wind (mph) | Vis. (mi.) | Weather | Sky Cond. | Temperature (ºF) | Relative Humidity | Wind Chill (°F) | Heat Index (°F) | Pressure | Precipitation (in) | ||||||
|---|---|---|---|---|---|---|---|---|---|---|---|---|---|---|---|---|---|
| Air | Dwpt | 6 hour | altimeter (in) | sea level (mb) | 1 hr | 3 hr | 6 hr | ||||||||||
| Max. | Min. | ||||||||||||||||
| 02 | 11:45 | E 16 | 5.00 | Low Drifting Snow Fog/Mist | OVC005 | 23 | 23 | 100% | 11 | 29.55 | 0.0 | ||||||
| 02 | 10:45 | E 18 | 3.00 | Low Drifting Snow Fog/Mist | OVC005 | 23 | 21.2 | 93% | 10 | 29.53 | 0.0 | ||||||
| 02 | 08:45 | E 20 | 2.00 | Low Drifting Snow Fog/Mist | OVC005 | 21.2 | 19.4 | 93% | 7 | 29.51 | 0.0 | ||||||
| 02 | 07:45 | E 17 | 2.00 | Low Drifting Snow Fog/Mist | OVC005 | 19.4 | 19.4 | 100% | 5 | 29.51 | 0.0 | ||||||
| 02 | 06:45 | E 18 | 2.00 | Low Drifting Snow Fog/Mist | OVC005 | 19.4 | 19.4 | 100% | 5 | 29.5 | 0.0 | ||||||
| 02 | 05:45 | E 21 | 2.00 | Low Drifting Snow Fog/Mist and Breezy | OVC005 | 21.2 | 19.4 | 93% | 7 | 29.5 | 0.0 | ||||||
| 02 | 04:45 | E 22 | 1.50 | Low Drifting Snow Fog/Mist and Breezy | OVC005 | 21.2 | 19.4 | 93% | 6 | 29.51 | 0.0 | ||||||
| 02 | 03:47 | E 22 | 1.50 | Blowing Snow Fog/Mist and Breezy | OVC006 | 21.2 | 19.4 | 93% | 6 | 29.51 | 0.0 | ||||||
| 01 | 18:45 | E 28 | 2.00 | Blowing Snow Fog/Mist and Windy | BKN008 | 19.4 | 17.6 | 93% | 2 | 29.63 | 0.0 | ||||||
| 01 | 17:45 | E 30 G 35 | 1.50 | Blowing Snow Fog/Mist and Windy | BKN008 | 21.2 | 19.4 | 93% | 4 | 29.64 | 0.0 | ||||||
| 01 | 16:45 | E 25 G 35 | 1.50 | Blowing Snow Fog/Mist and Breezy | BKN008 | 21.2 | 21.2 | 100% | 5 | 29.67 | 0.0 | ||||||
| 01 | 14:45 | E 30 G 35 | 1.00 | Blowing Snow Fog/Mist and Windy | BKN008 | 21.2 | 21.2 | 100% | 4 | 29.7 | 0.0 | ||||||
| 01 | 13:45 | E 28 | 1.00 | Blowing Snow Fog/Mist and Windy | BKN008 | 0 | 0 | 0% | 29.72 | 0.0 | |||||||
| 01 | 12:45 | E 26 | 1.50 | Blowing Snow Fog/Mist and Windy | OVC008 | 19.4 | 17.6 | 93% | 2 | 29.73 | 0.0 | ||||||
| 01 | 11:45 | E 25 | 1.50 | Blowing Snow Fog/Mist and Breezy | OVC008 | 17.6 | 15.8 | 93% | 0 | 29.76 | 0.0 | ||||||
| 01 | 10:45 | E 25 | 1.50 | Blowing Snow Fog/Mist and Breezy | OVC008 | 17.6 | 15.8 | 93% | 0 | 29.77 | 0.0 | ||||||
| 01 | 09:54 | E 22 | 1.50 | Blowing Snow Fog/Mist and Breezy | OVC008 | 17.6 | 15.8 | 93% | 1 | 29.79 | 0.0 | ||||||
| 01 | 08:45 | E 23 | 1.50 | Blowing Snow Fog/Mist and Breezy | OVC006 | 17.6 | 15.8 | 93% | 1 | 29.8 | 0.0 | ||||||
| 01 | 07:49 | E 21 | 3.00 | Low Drifting Snow and Breezy | OVC006 | 19.4 | 17.6 | 93% | 4 | 29.83 | 0.0 | ||||||
| 01 | 06:46 | E 21 | 7.00 | Low Drifting Snow and Breezy | OVC007 | 19.4 | 19.4 | 100% | 4 | 29.84 | 0.0 | ||||||
| 01 | 05:52 | E 20 | 7.00 | Low Drifting Snow | OVC006 | 19.4 | 19.4 | 100% | 5 | 29.86 | 0.0 | ||||||
| 01 | 04:45 | E 20 | 3.00 | Low Drifting Snow | OVC005 | 21.2 | 19.4 | 93% | 7 | 29.87 | 0.0 | ||||||
| 01 | 03:51 | E 17 | 1.50 | Light Showers Snow Low Drifting Snow | OVC005 | 21.2 | 19.4 | 93% | 8 | 29.9 | 0.0 | ||||||
| 30 | 18:45 | E 12 | 10.00 | Overcast | OVC009 | 23 | 21.2 | 93% | 13 | 29.97 | 0.0 | ||||||
| 30 | 17:45 | E 12 | 7.00 | Overcast | OVC005 | 23 | 21.2 | 93% | 13 | 29.97 | 0.0 | ||||||
| 30 | 16:45 | E 9 | 7.00 | Overcast | BKN004 OVC010 | 23 | 23 | 100% | 14 | 29.97 | 0.0 | ||||||
| 30 | 15:45 | E 9 | 3.00 | Fog/Mist | OVC004 | 23 | 23 | 100% | 14 | 29.98 | 0.0 | ||||||
| 30 | 14:45 | E 10 | 1.50 | Fog/Mist | OVC003 | 23 | 21.2 | 93% | 13 | 29.97 | 0.0 | ||||||
| 30 | 13:45 | E 9 | 4.00 | Fog/Mist | OVC011 | 23 | 21.2 | 93% | 14 | 29.97 | 0.0 | ||||||
| 30 | 12:45 | E 9 | 1.50 | Fog/Mist | OVC002 | 23 | 21.2 | 93% | 14 | 29.97 | 0.0 | ||||||
| 30 | 11:45 | E 8 | 1.50 | Fog/Mist | OVC004 | 23 | 21.2 | 93% | 15 | 29.96 | 0.0 | ||||||
| 30 | 10:45 | Calm | 5.00 | Fog/Mist | BKN002 BKN006 OVC015 | 21.2 | 21.2 | 100% | 29.95 | 0.0 | |||||||
| 30 | 09:45 | E 6 | 3.00 | Fog/Mist | OVC003 OVC009 | 21.2 | 19.4 | 93% | 14 | 29.95 | 0.0 | ||||||
| 30 | 08:45 | E 3 | 3.00 | Fog/Mist | BKN003 OVC008 | 21.2 | 19.4 | 93% | 29.95 | 0.0 | |||||||
| 30 | 07:45 | E 5 | 0.13 | Freezing Fog | NULL | 19.4 | 17.6 | 93% | 14 | 29.95 | 0.0 | ||||||
| 30 | 06:45 | NE 3 | 0.13 | Freezing Fog | VV003 | 14 | 12.2 | 92% | 29.95 | 0.0 | |||||||
| 30 | 05:48 | NE 5 | 0.13 | Freezing Fog | VV003 | 10.4 | 10.4 | 100% | 3 | 29.95 | 0.0 | ||||||
| 30 | 04:46 | NE 3 | 0.19 | Freezing Fog | VV002 | 8.6 | 6.8 | 92% | 29.95 | 0.0 | |||||||
| 30 | 03:47 | Vrbl 2 | 0.25 | Freezing Fog | VV001 | 8.6 | 6.8 | 92% | 29.95 | 0.0 | |||||||
| 29 | 18:45 | E 5 | 10.00 | Mostly Cloudy | BKN020 | 21.2 | 21.2 | 100% | 16 | 29.98 | 0.0 | ||||||
| 29 | 17:45 | E 5 | 10.00 | Mostly Cloudy | BKN019 BKN080 | 23 | 21.2 | 93% | 18 | 29.98 | 0.0 | ||||||
| 29 | 16:45 | E 5 | 10.00 | Mostly Cloudy | BKN021 BKN080 | 21.2 | 21.2 | 100% | 16 | 29.99 | 0.0 | ||||||
| 29 | 15:45 | E 3 | 10.00 | Mostly Cloudy | BKN021 BKN080 | 21.2 | 21.2 | 100% | 30 | 0.0 | |||||||
| 29 | 14:45 | E 3 | 10.00 | Mostly Cloudy | BKN023 | 21.2 | 21.2 | 100% | 30 | 0.0 | |||||||
| 29 | 13:45 | N 3 | 10.00 | Mostly Cloudy | BKN023 BKN080 | 21.2 | 19.4 | 93% | 29.99 | 0.0 | |||||||
| 29 | 12:45 | E 1 | 10.00 | Mostly Cloudy | BKN025 | 23 | 21.2 | 93% | 29.99 | 0.0 | |||||||
| Date | Time (akdt) | Wind (mph) | Vis. (mi.) | Weather | Sky Cond. | Air | Dwpt | Max. | Min. | Relative Humidity | Wind Chill (°F) | Heat Index (°F) | altimeter (in) | sea level (mb) | 1 hr | 3 hr | 6 hr |
| 6 hour | |||||||||||||||||
| Temperature (ºF) | Pressure | Precipitation (in) | |||||||||||||||